sensor_id;sensor_type;location;lat;lon;timestamp;temperature;humidity
9383;DHT22;4731;49.708;10.816;2022-08-04T00:02:02;21.60;99.90
9383;DHT22;4731;49.708;10.816;2022-08-04T00:04:38;21.60;99.90
9383;DHT22;4731;49.708;10.816;2022-08-04T00:07:12;21.50;99.90
9383;DHT22;4731;49.708;10.816;2022-08-04T00:09:43;21.40;99.90
9383;DHT22;4731;49.708;10.816;2022-08-04T00:12:15;21.50;99.90
9383;DHT22;4731;49.708;10.816;2022-08-04T00:14:49;21.50;99.90
9383;DHT22;4731;49.708;10.816;2022-08-04T00:17:20;23.60;99.90
9383;DHT22;4731;49.708;10.816;2022-08-04T00:20:00;21.40;99.90
9383;DHT22;4731;49.708;10.816;2022-08-04T00:22:28;21.50;99.90
9383;DHT22;4731;49.708;10.816;2022-08-04T00:24:57;21.40;99.90
9383;DHT22;4731;49.708;10.816;2022-08-04T00:27:28;21.40;99.90
9383;DHT22;4731;49.708;10.816;2022-08-04T00:29:58;21.40;99.90
9383;DHT22;4731;49.708;10.816;2022-08-04T00:32:25;21.90;99.90
9383;DHT22;4731;49.708;10.816;2022-08-04T00:34:54;22.80;99.90
9383;DHT22;4731;49.708;10.816;2022-08-04T00:37:21;21.30;99.90
9383;DHT22;4731;49.708;10.816;2022-08-04T00:39:50;21.30;99.90
9383;DHT22;4731;49.708;10.816;2022-08-04T00:42:33;21.30;99.90
9383;DHT22;4731;49.708;10.816;2022-08-04T00:45:29;21.20;99.90
9383;DHT22;4731;49.708;10.816;2022-08-04T00:48:11;22.60;99.90
9383;DHT22;4731;49.708;10.816;2022-08-04T00:50:43;23.40;99.90
9383;DHT22;4731;49.708;10.816;2022-08-04T00:53:16;21.80;99.90
9383;DHT22;4731;49.708;10.816;2022-08-04T00:56:14;21.10;99.90
9383;DHT22;4731;49.708;10.816;2022-08-04T00:58:58;20.90;99.90
9383;DHT22;4731;49.708;10.816;2022-08-04T01:01:45;20.90;99.90
9383;DHT22;4731;49.708;10.816;2022-08-04T01:04:22;20.90;99.90
9383;DHT22;4731;49.708;10.816;2022-08-04T01:07:02;23.00;99.90
9383;DHT22;4731;49.708;10.816;2022-08-04T01:09:42;22.20;99.90
9383;DHT22;4731;49.708;10.816;2022-08-04T01:12:20;20.70;99.90
9383;DHT22;4731;49.708;10.816;2022-08-04T01:15:03;22.20;99.90
9383;DHT22;4731;49.708;10.816;2022-08-04T01:17:41;23.30;99.90
9383;DHT22;4731;49.708;10.816;2022-08-04T01:20:10;20.70;99.90
9383;DHT22;4731;49.708;10.816;2022-08-04T01:23:23;20.70;99.90
9383;DHT22;4731;49.708;10.816;2022-08-04T01:29:04;20.60;99.90
9383;DHT22;4731;49.708;10.816;2022-08-04T01:31:41;22.80;99.90
9383;DHT22;4731;49.708;10.816;2022-08-04T01:34:12;20.50;99.90
9383;DHT22;4731;49.708;10.816;2022-08-04T01:36:44;20.60;99.90
9383;DHT22;4731;49.708;10.816;2022-08-04T01:39:11;20.50;99.90
9383;DHT22;4731;49.708;10.816;2022-08-04T01:41:54;20.60;99.90
9383;DHT22;4731;49.708;10.816;2022-08-04T01:44:23;20.50;99.90
9383;DHT22;4731;49.708;10.816;2022-08-04T01:46:52;20.40;99.90
9383;DHT22;4731;49.708;10.816;2022-08-04T01:49:20;20.40;99.90
9383;DHT22;4731;49.708;10.816;2022-08-04T01:51:49;20.40;99.90
9383;DHT22;4731;49.708;10.816;2022-08-04T01:54:17;20.40;99.90
9383;DHT22;4731;49.708;10.816;2022-08-04T01:56:46;20.30;99.90
9383;DHT22;4731;49.708;10.816;2022-08-04T01:59:17;20.30;99.90
9383;DHT22;4731;49.708;10.816;2022-08-04T02:01:45;21.90;99.90
9383;DHT22;4731;49.708;10.816;2022-08-04T02:04:13;20.30;99.90
9383;DHT22;4731;49.708;10.816;2022-08-04T02:06:49;20.30;99.90
9383;DHT22;4731;49.708;10.816;2022-08-04T02:09:22;20.30;99.90
9383;DHT22;4731;49.708;10.816;2022-08-04T02:11:59;21.80;99.90
9383;DHT22;4731;49.708;10.816;2022-08-04T02:14:29;20.20;99.90
9383;DHT22;4731;49.708;10.816;2022-08-04T02:17:12;20.20;99.90
9383;DHT22;4731;49.708;10.816;2022-08-04T02:20:03;20.20;99.90
9383;DHT22;4731;49.708;10.816;2022-08-04T02:22:32;20.10;99.90
9383;DHT22;4731;49.708;10.816;2022-08-04T02:25:04;22.10;99.90
9383;DHT22;4731;49.708;10.816;2022-08-04T02:27:45;20.10;99.90
9383;DHT22;4731;49.708;10.816;2022-08-04T02:30:15;20.10;99.90
9383;DHT22;4731;49.708;10.816;2022-08-04T02:32:46;20.00;99.90
9383;DHT22;4731;49.708;10.816;2022-08-04T02:35:16;21.20;99.90
9383;DHT22;4731;49.708;10.816;2022-08-04T02:37:48;20.20;99.90
9383;DHT22;4731;49.708;10.816;2022-08-04T02:40:20;20.00;99.90
9383;DHT22;4731;49.708;10.816;2022-08-04T02:42:49;20.00;99.90
9383;DHT22;4731;49.708;10.816;2022-08-04T02:45:18;20.10;99.90
9383;DHT22;4731;49.708;10.816;2022-08-04T02:47:47;19.90;99.90
9383;DHT22;4731;49.708;10.816;2022-08-04T02:50:17;19.90;99.90
9383;DHT22;4731;49.708;10.816;2022-08-04T02:52:44;19.90;99.90
9383;DHT22;4731;49.708;10.816;2022-08-04T02:55:13;19.90;99.90
9383;DHT22;4731;49.708;10.816;2022-08-04T02:57:44;19.80;99.90
9383;DHT22;4731;49.708;10.816;2022-08-04T03:00:14;19.80;99.90
9383;DHT22;4731;49.708;10.816;2022-08-04T03:02:54;19.70;99.90
9383;DHT22;4731;49.708;10.816;2022-08-04T03:05:25;20.80;99.90
9383;DHT22;4731;49.708;10.816;2022-08-04T03:08:06;20.60;99.90
9383;DHT22;4731;49.708;10.816;2022-08-04T03:10:56;19.70;99.90
9383;DHT22;4731;49.708;10.816;2022-08-04T03:13:46;18.30;99.90
9383;DHT22;4731;49.708;10.816;2022-08-04T03:16:40;19.60;99.90
9383;DHT22;4731;49.708;10.816;2022-08-04T03:19:48;19.60;99.90
9383;DHT22;4731;49.708;10.816;2022-08-04T03:22:53;19.60;99.90
9383;DHT22;4731;49.708;10.816;2022-08-04T03:25:40;19.50;99.90
9383;DHT22;4731;49.708;10.816;2022-08-04T03:28:48;19.50;99.90
9383;DHT22;4731;49.708;10.816;2022-08-04T03:34:41;19.30;99.90
9383;DHT22;4731;49.708;10.816;2022-08-04T03:37:33;19.50;99.90
9383;DHT22;4731;49.708;10.816;2022-08-04T03:40:39;19.90;99.90
9383;DHT22;4731;49.708;10.816;2022-08-04T03:43:28;19.30;99.90
9383;DHT22;4731;49.708;10.816;2022-08-04T03:46:32;19.30;99.90
9383;DHT22;4731;49.708;10.816;2022-08-04T03:52:19;19.30;99.90
9383;DHT22;4731;49.708;10.816;2022-08-04T03:55:34;21.50;99.90
9383;DHT22;4731;49.708;10.816;2022-08-04T04:01:09;19.20;99.90
9383;DHT22;4731;49.708;10.816;2022-08-04T04:03:53;21.50;99.90
9383;DHT22;4731;49.708;10.816;2022-08-04T04:06:45;19.20;99.90
9383;DHT22;4731;49.708;10.816;2022-08-04T04:09:54;19.20;99.90
9383;DHT22;4731;49.708;10.816;2022-08-04T04:15:45;19.20;99.90
9383;DHT22;4731;49.708;10.816;2022-08-04T04:18:28;19.10;99.90
9383;DHT22;4731;49.708;10.816;2022-08-04T04:21:16;19.20;99.90
9383;DHT22;4731;49.708;10.816;2022-08-04T04:24:00;19.20;99.90
9383;DHT22;4731;49.708;10.816;2022-08-04T04:26:44;19.40;99.90
9383;DHT22;4731;49.708;10.816;2022-08-04T04:29:34;19.40;99.90
9383;DHT22;4731;49.708;10.816;2022-08-04T04:32:23;19.50;99.90
9383;DHT22;4731;49.708;10.816;2022-08-04T04:35:06;19.60;99.90
9383;DHT22;4731;49.708;10.816;2022-08-04T04:37:50;19.70;99.90
9383;DHT22;4731;49.708;10.816;2022-08-04T04:40:31;22.30;99.90
9383;DHT22;4731;49.708;10.816;2022-08-04T04:43:10;19.90;99.90
9383;DHT22;4731;49.708;10.816;2022-08-04T04:45:41;19.90;99.90
9383;DHT22;4731;49.708;10.816;2022-08-04T04:48:25;21.90;99.90
9383;DHT22;4731;49.708;10.816;2022-08-04T04:51:05;22.20;99.90
9383;DHT22;4731;49.708;10.816;2022-08-04T04:53:41;20.30;99.90
9383;DHT22;4731;49.708;10.816;2022-08-04T04:56:15;20.50;99.90
9383;DHT22;4731;49.708;10.816;2022-08-04T04:58:42;21.00;99.90
9383;DHT22;4731;49.708;10.816;2022-08-04T05:01:39;20.50;99.90
9383;DHT22;4731;49.708;10.816;2022-08-04T05:04:28;20.40;99.90
9383;DHT22;4731;49.708;10.816;2022-08-04T05:07:17;20.30;99.90
9383;DHT22;4731;49.708;10.816;2022-08-04T05:09:58;20.20;99.90
9383;DHT22;4731;49.708;10.816;2022-08-04T05:12:51;20.40;99.90
9383;DHT22;4731;49.708;10.816;2022-08-04T05:15:29;20.50;99.90
9383;DHT22;4731;49.708;10.816;2022-08-04T05:18:00;21.10;99.90
9383;DHT22;4731;49.708;10.816;2022-08-04T05:20:34;20.80;99.90
9383;DHT22;4731;49.708;10.816;2022-08-04T05:23:07;21.90;99.90
9383;DHT22;4731;49.708;10.816;2022-08-04T05:25:39;21.10;99.90
9383;DHT22;4731;49.708;10.816;2022-08-04T05:28:15;21.20;99.90
9383;DHT22;4731;49.708;10.816;2022-08-04T05:30:48;21.20;99.90
9383;DHT22;4731;49.708;10.816;2022-08-04T05:33:18;21.30;99.90
9383;DHT22;4731;49.708;10.816;2022-08-04T05:35:51;21.50;99.90
9383;DHT22;4731;49.708;10.816;2022-08-04T05:38:28;21.70;99.90
9383;DHT22;4731;49.708;10.816;2022-08-04T05:40:57;21.90;99.90
9383;DHT22;4731;49.708;10.816;2022-08-04T05:43:25;23.90;99.90
9383;DHT22;4731;49.708;10.816;2022-08-04T05:45:53;24.00;99.90
9383;DHT22;4731;49.708;10.816;2022-08-04T05:48:22;22.60;99.90
9383;DHT22;4731;49.708;10.816;2022-08-04T05:50:51;22.80;99.90
9383;DHT22;4731;49.708;10.816;2022-08-04T05:53:19;24.00;99.90
9383;DHT22;4731;49.708;10.816;2022-08-04T05:55:47;23.10;99.90
9383;DHT22;4731;49.708;10.816;2022-08-04T05:58:15;23.40;99.90
9383;DHT22;4731;49.708;10.816;2022-08-04T06:00:44;25.20;99.90
9383;DHT22;4731;49.708;10.816;2022-08-04T06:03:12;23.60;99.90
9383;DHT22;4731;49.708;10.816;2022-08-04T06:05:41;23.50;99.90
9383;DHT22;4731;49.708;10.816;2022-08-04T06:08:09;23.60;99.90
9383;DHT22;4731;49.708;10.816;2022-08-04T06:10:37;23.90;99.90
9383;DHT22;4731;49.708;10.816;2022-08-04T06:13:07;24.10;99.90
9383;DHT22;4731;49.708;10.816;2022-08-04T06:15:39;24.20;99.90
9383;DHT22;4731;49.708;10.816;2022-08-04T06:18:09;24.50;99.90
9383;DHT22;4731;49.708;10.816;2022-08-04T06:20:38;24.20;99.90
9383;DHT22;4731;49.708;10.816;2022-08-04T06:23:08;24.30;99.90
9383;DHT22;4731;49.708;10.816;2022-08-04T06:25:40;24.40;99.90
9383;DHT22;4731;49.708;10.816;2022-08-04T06:28:09;24.50;99.90
9383;DHT22;4731;49.708;10.816;2022-08-04T06:30:37;26.20;99.90
9383;DHT22;4731;49.708;10.816;2022-08-04T06:33:07;24.90;99.90
9383;DHT22;4731;49.708;10.816;2022-08-04T06:35:50;25.00;99.90
9383;DHT22;4731;49.708;10.816;2022-08-04T06:38:20;25.00;99.90
9383;DHT22;4731;49.708;10.816;2022-08-04T06:40:49;25.10;99.90
9383;DHT22;4731;49.708;10.816;2022-08-04T06:43:16;25.00;99.90
9383;DHT22;4731;49.708;10.816;2022-08-04T06:45:44;25.30;99.90
9383;DHT22;4731;49.708;10.816;2022-08-04T06:48:13;25.30;99.90
9383;DHT22;4731;49.708;10.816;2022-08-04T06:50:43;26.20;99.90
9383;DHT22;4731;49.708;10.816;2022-08-04T06:53:11;25.40;99.90
9383;DHT22;4731;49.708;10.816;2022-08-04T06:55:40;25.50;99.90
9383;DHT22;4731;49.708;10.816;2022-08-04T06:58:10;25.80;99.90
9383;DHT22;4731;49.708;10.816;2022-08-04T07:00:40;26.00;99.90
9383;DHT22;4731;49.708;10.816;2022-08-04T07:03:07;26.20;99.90
9383;DHT22;4731;49.708;10.816;2022-08-04T07:05:35;26.50;99.90
9383;DHT22;4731;49.708;10.816;2022-08-04T07:08:03;26.50;99.90
9383;DHT22;4731;49.708;10.816;2022-08-04T07:10:30;26.40;99.90
9383;DHT22;4731;49.708;10.816;2022-08-04T07:12:58;26.80;99.90
9383;DHT22;4731;49.708;10.816;2022-08-04T07:15:27;26.80;99.90
9383;DHT22;4731;49.708;10.816;2022-08-04T07:17:55;27.10;99.90
9383;DHT22;4731;49.708;10.816;2022-08-04T07:20:24;27.20;99.90
9383;DHT22;4731;49.708;10.816;2022-08-04T07:22:52;27.40;99.90
9383;DHT22;4731;49.708;10.816;2022-08-04T07:25:19;27.40;99.90
9383;DHT22;4731;49.708;10.816;2022-08-04T07:27:46;27.20;99.90
9383;DHT22;4731;49.708;10.816;2022-08-04T07:30:13;27.50;99.90
9383;DHT22;4731;49.708;10.816;2022-08-04T07:32:42;27.80;99.90
9383;DHT22;4731;49.708;10.816;2022-08-04T07:35:11;27.70;99.90
9383;DHT22;4731;49.708;10.816;2022-08-04T07:37:39;27.80;99.90
9383;DHT22;4731;49.708;10.816;2022-08-04T07:40:06;27.90;99.90
9383;DHT22;4731;49.708;10.816;2022-08-04T07:42:34;28.50;99.90
9383;DHT22;4731;49.708;10.816;2022-08-04T07:45:00;28.30;99.90
9383;DHT22;4731;49.708;10.816;2022-08-04T07:47:28;28.30;99.90
9383;DHT22;4731;49.708;10.816;2022-08-04T07:49:56;28.70;99.90
9383;DHT22;4731;49.708;10.816;2022-08-04T07:52:23;29.00;99.90
9383;DHT22;4731;49.708;10.816;2022-08-04T07:54:51;29.60;99.90
9383;DHT22;4731;49.708;10.816;2022-08-04T07:57:19;29.30;99.90
9383;DHT22;4731;49.708;10.816;2022-08-04T07:59:46;29.70;99.90
9383;DHT22;4731;49.708;10.816;2022-08-04T08:02:13;29.20;99.90
9383;DHT22;4731;49.708;10.816;2022-08-04T08:04:42;29.00;99.90
9383;DHT22;4731;49.708;10.816;2022-08-04T08:07:10;29.50;99.90
9383;DHT22;4731;49.708;10.816;2022-08-04T08:09:37;30.20;99.90
9383;DHT22;4731;49.708;10.816;2022-08-04T08:12:06;30.40;99.90
9383;DHT22;4731;49.708;10.816;2022-08-04T08:14:34;30.30;99.90
9383;DHT22;4731;49.708;10.816;2022-08-04T08:17:01;30.50;99.90
9383;DHT22;4731;49.708;10.816;2022-08-04T08:19:29;30.70;99.90
9383;DHT22;4731;49.708;10.816;2022-08-04T08:21:56;30.50;99.90
9383;DHT22;4731;49.708;10.816;2022-08-04T08:24:24;30.50;99.90
9383;DHT22;4731;49.708;10.816;2022-08-04T08:26:51;31.10;99.90
9383;DHT22;4731;49.708;10.816;2022-08-04T08:29:18;30.90;99.90
9383;DHT22;4731;49.708;10.816;2022-08-04T08:31:45;30.90;99.90
9383;DHT22;4731;49.708;10.816;2022-08-04T08:34:12;30.80;99.90
9383;DHT22;4731;49.708;10.816;2022-08-04T08:36:44;31.00;99.90
9383;DHT22;4731;49.708;10.816;2022-08-04T08:39:15;30.90;99.90
9383;DHT22;4731;49.708;10.816;2022-08-04T08:42:17;31.70;99.90
9383;DHT22;4731;49.708;10.816;2022-08-04T08:51:15;31.90;99.50
9383;DHT22;4731;49.708;10.816;2022-08-04T08:54:03;31.60;99.80
9383;DHT22;4731;49.708;10.816;2022-08-04T08:56:40;32.00;99.90
9383;DHT22;4731;49.708;10.816;2022-08-04T08:59:33;32.20;99.00
9383;DHT22;4731;49.708;10.816;2022-08-04T09:02:24;32.60;99.00
9383;DHT22;4731;49.708;10.816;2022-08-04T09:05:07;32.40;98.10
9383;DHT22;4731;49.708;10.816;2022-08-04T09:07:56;32.40;98.40
9383;DHT22;4731;49.708;10.816;2022-08-04T09:10:35;32.80;97.40
9383;DHT22;4731;49.708;10.816;2022-08-04T09:13:18;32.90;97.40
9383;DHT22;4731;49.708;10.816;2022-08-04T09:15:56;33.20;96.70
9383;DHT22;4731;49.708;10.816;2022-08-04T09:18:29;32.90;95.90
9383;DHT22;4731;49.708;10.816;2022-08-04T09:21:03;33.00;96.70
9383;DHT22;4731;49.708;10.816;2022-08-04T09:23:39;33.30;95.30
9383;DHT22;4731;49.708;10.816;2022-08-04T09:26:14;32.80;95.60
9383;DHT22;4731;49.708;10.816;2022-08-04T09:28:50;32.70;95.30
9383;DHT22;4731;49.708;10.816;2022-08-04T09:31:22;33.30;94.60
9383;DHT22;4731;49.708;10.816;2022-08-04T09:33:57;33.00;95.00
9383;DHT22;4731;49.708;10.816;2022-08-04T09:36:33;32.90;94.30
9383;DHT22;4731;49.708;10.816;2022-08-04T09:39:09;33.20;94.40
9383;DHT22;4731;49.708;10.816;2022-08-04T09:41:44;32.90;94.60
9383;DHT22;4731;49.708;10.816;2022-08-04T09:44:20;33.40;94.30
9383;DHT22;4731;49.708;10.816;2022-08-04T09:46:58;33.00;94.50
9383;DHT22;4731;49.708;10.816;2022-08-04T09:49:30;33.90;93.80
9383;DHT22;4731;49.708;10.816;2022-08-04T09:52:06;33.20;93.50
9383;DHT22;4731;49.708;10.816;2022-08-04T09:54:44;33.80;93.10
9383;DHT22;4731;49.708;10.816;2022-08-04T09:57:19;34.50;92.60
9383;DHT22;4731;49.708;10.816;2022-08-04T09:59:54;33.90;92.00
9383;DHT22;4731;49.708;10.816;2022-08-04T10:02:24;34.10;92.40
9383;DHT22;4731;49.708;10.816;2022-08-04T10:04:54;34.00;91.90
9383;DHT22;4731;49.708;10.816;2022-08-04T10:07:41;32.90;91.40
9383;DHT22;4731;49.708;10.816;2022-08-04T10:10:30;33.80;91.10
9383;DHT22;4731;49.708;10.816;2022-08-04T10:13:22;34.60;90.10
9383;DHT22;4731;49.708;10.816;2022-08-04T10:16:06;34.60;89.50
9383;DHT22;4731;49.708;10.816;2022-08-04T10:18:49;34.50;88.20
9383;DHT22;4731;49.708;10.816;2022-08-04T10:21:25;34.30;87.80
9383;DHT22;4731;49.708;10.816;2022-08-04T10:24:05;34.00;88.80
9383;DHT22;4731;49.708;10.816;2022-08-04T10:26:40;33.20;89.00
9383;DHT22;4731;49.708;10.816;2022-08-04T10:29:11;33.70;89.00
9383;DHT22;4731;49.708;10.816;2022-08-04T10:31:45;33.80;88.00
9383;DHT22;4731;49.708;10.816;2022-08-04T10:34:19;34.30;88.00
9383;DHT22;4731;49.708;10.816;2022-08-04T10:36:52;34.20;86.60
9383;DHT22;4731;49.708;10.816;2022-08-04T10:39:26;34.40;86.30
9383;DHT22;4731;49.708;10.816;2022-08-04T10:42:02;34.50;85.30
9383;DHT22;4731;49.708;10.816;2022-08-04T10:44:42;34.50;85.80
9383;DHT22;4731;49.708;10.816;2022-08-04T10:47:16;34.60;84.70
9383;DHT22;4731;49.708;10.816;2022-08-04T10:49:53;34.40;83.80
9383;DHT22;4731;49.708;10.816;2022-08-04T10:52:25;34.60;84.60
9383;DHT22;4731;49.708;10.816;2022-08-04T10:55:00;34.50;85.20
9383;DHT22;4731;49.708;10.816;2022-08-04T10:57:33;35.40;83.20
9383;DHT22;4731;49.708;10.816;2022-08-04T11:00:04;35.90;81.30
9383;DHT22;4731;49.708;10.816;2022-08-04T11:02:38;36.00;81.50
9383;DHT22;4731;49.708;10.816;2022-08-04T11:05:19;35.40;80.70
9383;DHT22;4731;49.708;10.816;2022-08-04T11:07:50;35.40;80.60
9383;DHT22;4731;49.708;10.816;2022-08-04T11:10:21;35.90;80.60
9383;DHT22;4731;49.708;10.816;2022-08-04T11:12:53;35.10;80.50
9383;DHT22;4731;49.708;10.816;2022-08-04T11:15:24;35.40;80.80
9383;DHT22;4731;49.708;10.816;2022-08-04T11:17:56;35.30;80.90
9383;DHT22;4731;49.708;10.816;2022-08-04T11:20:29;35.40;79.50
9383;DHT22;4731;49.708;10.816;2022-08-04T11:23:04;35.20;80.60
9383;DHT22;4731;49.708;10.816;2022-08-04T11:25:35;34.70;79.90
9383;DHT22;4731;49.708;10.816;2022-08-04T11:28:11;35.10;79.00
9383;DHT22;4731;49.708;10.816;2022-08-04T11:30:41;35.70;78.00
9383;DHT22;4731;49.708;10.816;2022-08-04T11:33:19;36.10;79.10
9383;DHT22;4731;49.708;10.816;2022-08-04T11:35:54;35.90;77.10
9383;DHT22;4731;49.708;10.816;2022-08-04T11:38:27;35.40;77.10
9383;DHT22;4731;49.708;10.816;2022-08-04T11:41:02;35.30;78.20
9383;DHT22;4731;49.708;10.816;2022-08-04T11:43:35;35.80;78.70
9383;DHT22;4731;49.708;10.816;2022-08-04T11:46:08;36.10;77.30
9383;DHT22;4731;49.708;10.816;2022-08-04T11:48:44;36.60;76.20
9383;DHT22;4731;49.708;10.816;2022-08-04T11:51:17;37.00;75.10
9383;DHT22;4731;49.708;10.816;2022-08-04T11:53:45;37.30;74.20
9383;DHT22;4731;49.708;10.816;2022-08-04T11:56:13;36.30;75.00
9383;DHT22;4731;49.708;10.816;2022-08-04T11:58:42;36.10;76.30
9383;DHT22;4731;49.708;10.816;2022-08-04T12:01:16;36.20;75.50
9383;DHT22;4731;49.708;10.816;2022-08-04T12:03:52;35.80;75.70
9383;DHT22;4731;49.708;10.816;2022-08-04T12:06:31;35.80;75.40
9383;DHT22;4731;49.708;10.816;2022-08-04T12:09:10;36.00;74.10
9383;DHT22;4731;49.708;10.816;2022-08-04T12:11:48;35.90;73.40
9383;DHT22;4731;49.708;10.816;2022-08-04T12:14:25;35.30;73.40
9383;DHT22;4731;49.708;10.816;2022-08-04T12:16:58;35.70;74.50
9383;DHT22;4731;49.708;10.816;2022-08-04T12:19:30;35.90;73.50
9383;DHT22;4731;49.708;10.816;2022-08-04T12:22:03;36.60;74.30
9383;DHT22;4731;49.708;10.816;2022-08-04T12:24:36;37.30;72.50
9383;DHT22;4731;49.708;10.816;2022-08-04T12:27:11;37.00;70.90
9383;DHT22;4731;49.708;10.816;2022-08-04T12:29:40;36.10;72.10
9383;DHT22;4731;49.708;10.816;2022-08-04T12:32:16;36.10;73.00
9383;DHT22;4731;49.708;10.816;2022-08-04T12:34:47;36.10;72.00
9383;DHT22;4731;49.708;10.816;2022-08-04T12:37:25;35.40;72.50
9383;DHT22;4731;49.708;10.816;2022-08-04T12:39:53;35.30;72.10
9383;DHT22;4731;49.708;10.816;2022-08-04T12:42:28;35.60;72.40
9383;DHT22;4731;49.708;10.816;2022-08-04T12:45:03;36.30;73.30
9383;DHT22;4731;49.708;10.816;2022-08-04T12:47:34;36.90;72.10
9383;DHT22;4731;49.708;10.816;2022-08-04T12:50:03;36.80;70.80
9383;DHT22;4731;49.708;10.816;2022-08-04T12:52:33;37.00;71.30
9383;DHT22;4731;49.708;10.816;2022-08-04T12:55:07;36.60;70.30
9383;DHT22;4731;49.708;10.816;2022-08-04T12:57:35;36.60;71.50
9383;DHT22;4731;49.708;10.816;2022-08-04T13:00:03;36.90;70.70
9383;DHT22;4731;49.708;10.816;2022-08-04T13:02:34;37.00;69.30
9383;DHT22;4731;49.708;10.816;2022-08-04T13:05:05;37.00;70.00
9383;DHT22;4731;49.708;10.816;2022-08-04T13:07:39;37.00;70.30
9383;DHT22;4731;49.708;10.816;2022-08-04T13:10:11;37.30;70.20
9383;DHT22;4731;49.708;10.816;2022-08-04T13:12:40;37.10;69.40
9383;DHT22;4731;49.708;10.816;2022-08-04T13:15:11;37.10;69.10
9383;DHT22;4731;49.708;10.816;2022-08-04T13:17:48;37.20;69.10
9383;DHT22;4731;49.708;10.816;2022-08-04T13:20:19;37.20;69.30
9383;DHT22;4731;49.708;10.816;2022-08-04T13:22:51;37.70;69.50
9383;DHT22;4731;49.708;10.816;2022-08-04T13:25:27;38.10;67.30
9383;DHT22;4731;49.708;10.816;2022-08-04T13:27:55;38.30;67.90
9383;DHT22;4731;49.708;10.816;2022-08-04T13:30:23;38.50;67.50
9383;DHT22;4731;49.708;10.816;2022-08-04T13:32:53;38.70;67.00
9383;DHT22;4731;49.708;10.816;2022-08-04T13:35:21;38.70;66.90
9383;DHT22;4731;49.708;10.816;2022-08-04T13:37:50;38.70;66.60
9383;DHT22;4731;49.708;10.816;2022-08-04T13:40:21;38.30;67.00
9383;DHT22;4731;49.708;10.816;2022-08-04T13:42:51;38.20;66.20
9383;DHT22;4731;49.708;10.816;2022-08-04T13:45:20;37.00;67.00
9383;DHT22;4731;49.708;10.816;2022-08-04T13:47:48;38.10;68.60
9383;DHT22;4731;49.708;10.816;2022-08-04T13:50:19;36.90;68.30
9383;DHT22;4731;49.708;10.816;2022-08-04T13:52:52;36.80;68.30
9383;DHT22;4731;49.708;10.816;2022-08-04T13:55:21;36.80;68.40
9383;DHT22;4731;49.708;10.816;2022-08-04T13:57:51;36.60;68.50
9383;DHT22;4731;49.708;10.816;2022-08-04T14:00:19;36.70;68.70
9383;DHT22;4731;49.708;10.816;2022-08-04T14:02:49;36.90;68.00
9383;DHT22;4731;49.708;10.816;2022-08-04T14:05:22;37.00;68.00
9383;DHT22;4731;49.708;10.816;2022-08-04T14:07:55;37.40;66.40
9383;DHT22;4731;49.708;10.816;2022-08-04T14:10:23;37.40;66.90
9383;DHT22;4731;49.708;10.816;2022-08-04T14:12:51;37.80;67.00
9383;DHT22;4731;49.708;10.816;2022-08-04T14:15:31;37.80;67.70
9383;DHT22;4731;49.708;10.816;2022-08-04T14:18:19;37.90;67.50
9383;DHT22;4731;49.708;10.816;2022-08-04T14:21:03;38.00;67.00
9383;DHT22;4731;49.708;10.816;2022-08-04T14:23:45;38.10;67.20
9383;DHT22;4731;49.708;10.816;2022-08-04T14:26:14;38.10;65.80
9383;DHT22;4731;49.708;10.816;2022-08-04T14:28:41;37.60;65.00
9383;DHT22;4731;49.708;10.816;2022-08-04T14:31:09;37.80;66.10
9383;DHT22;4731;49.708;10.816;2022-08-04T14:33:39;37.30;66.90
9383;DHT22;4731;49.708;10.816;2022-08-04T14:36:10;37.30;66.70
9383;DHT22;4731;49.708;10.816;2022-08-04T14:38:44;37.30;66.80
9383;DHT22;4731;49.708;10.816;2022-08-04T14:41:12;37.30;66.60
9383;DHT22;4731;49.708;10.816;2022-08-04T14:43:42;37.20;67.00
9383;DHT22;4731;49.708;10.816;2022-08-04T14:46:09;36.70;67.20
9383;DHT22;4731;49.708;10.816;2022-08-04T14:48:37;36.10;68.00
9383;DHT22;4731;49.708;10.816;2022-08-04T14:51:05;36.30;68.30
9383;DHT22;4731;49.708;10.816;2022-08-04T14:53:38;36.80;68.70
9383;DHT22;4731;49.708;10.816;2022-08-04T14:56:07;37.00;68.00
9383;DHT22;4731;49.708;10.816;2022-08-04T14:58:35;37.00;67.70
9383;DHT22;4731;49.708;10.816;2022-08-04T15:01:04;36.70;67.00
9383;DHT22;4731;49.708;10.816;2022-08-04T15:03:31;36.70;67.50
9383;DHT22;4731;49.708;10.816;2022-08-04T15:05:59;36.40;67.00
9383;DHT22;4731;49.708;10.816;2022-08-04T15:08:27;36.60;67.20
9383;DHT22;4731;49.708;10.816;2022-08-04T15:10:54;36.40;67.00
9383;DHT22;4731;49.708;10.816;2022-08-04T15:13:26;36.40;66.90
9383;DHT22;4731;49.708;10.816;2022-08-04T15:15:54;36.40;67.40
9383;DHT22;4731;49.708;10.816;2022-08-04T15:18:22;36.00;68.10
9383;DHT22;4731;49.708;10.816;2022-08-04T15:20:55;35.90;68.00
9383;DHT22;4731;49.708;10.816;2022-08-04T15:23:24;35.90;68.10
9383;DHT22;4731;49.708;10.816;2022-08-04T15:25:53;35.50;68.60
9383;DHT22;4731;49.708;10.816;2022-08-04T15:28:25;35.50;67.10
9383;DHT22;4731;49.708;10.816;2022-08-04T15:30:53;35.50;67.90
9383;DHT22;4731;49.708;10.816;2022-08-04T15:33:21;35.50;66.70
9383;DHT22;4731;49.708;10.816;2022-08-04T15:35:54;35.50;67.50
9383;DHT22;4731;49.708;10.816;2022-08-04T15:38:38;35.70;68.10
9383;DHT22;4731;49.708;10.816;2022-08-04T15:41:09;35.60;68.50
9383;DHT22;4731;49.708;10.816;2022-08-04T15:43:52;35.40;67.80
9383;DHT22;4731;49.708;10.816;2022-08-04T15:46:59;35.20;68.60
9383;DHT22;4731;49.708;10.816;2022-08-04T15:49:34;35.20;68.90
9383;DHT22;4731;49.708;10.816;2022-08-04T15:52:06;35.10;69.00
9383;DHT22;4731;49.708;10.816;2022-08-04T15:54:34;35.10;68.80
9383;DHT22;4731;49.708;10.816;2022-08-04T15:57:04;37.60;70.80
9383;DHT22;4731;49.708;10.816;2022-08-04T16:00:00;35.00;69.00
9383;DHT22;4731;49.708;10.816;2022-08-04T16:02:34;34.90;68.60
9383;DHT22;4731;49.708;10.816;2022-08-04T16:05:29;35.00;69.30
9383;DHT22;4731;49.708;10.816;2022-08-04T16:08:00;35.10;69.20
9383;DHT22;4731;49.708;10.816;2022-08-04T16:10:35;35.00;69.00
9383;DHT22;4731;49.708;10.816;2022-08-04T16:13:05;34.90;68.60
9383;DHT22;4731;49.708;10.816;2022-08-04T16:15:41;35.10;69.10
9383;DHT22;4731;49.708;10.816;2022-08-04T16:18:10;35.20;68.30
9383;DHT22;4731;49.708;10.816;2022-08-04T16:20:40;35.30;68.60
9383;DHT22;4731;49.708;10.816;2022-08-04T16:23:38;35.30;68.60
9383;DHT22;4731;49.708;10.816;2022-08-04T16:26:05;35.30;68.80
9383;DHT22;4731;49.708;10.816;2022-08-04T16:28:37;35.30;67.70
9383;DHT22;4731;49.708;10.816;2022-08-04T16:31:08;35.30;68.50
9383;DHT22;4731;49.708;10.816;2022-08-04T16:33:36;35.30;68.10
9383;DHT22;4731;49.708;10.816;2022-08-04T16:36:05;35.40;68.40
9383;DHT22;4731;49.708;10.816;2022-08-04T16:38:59;35.40;67.50
9383;DHT22;4731;49.708;10.816;2022-08-04T16:41:38;35.40;68.50
9383;DHT22;4731;49.708;10.816;2022-08-04T16:44:30;35.30;68.00
9383;DHT22;4731;49.708;10.816;2022-08-04T16:47:00;35.30;68.30
9383;DHT22;4731;49.708;10.816;2022-08-04T16:49:29;35.20;68.70
9383;DHT22;4731;49.708;10.816;2022-08-04T16:52:00;35.20;68.90
9383;DHT22;4731;49.708;10.816;2022-08-04T16:54:28;35.20;68.70